Time;durP1;ratioP1;P1;durP2;ratioP2;P2;SDS_P1;SDS_P2;PMS_P1;PMS_P2;Temp;Humidity;BMP_temperature;BMP_pressure;BME280_temperature;BME280_humidity;BME280_pressure;Samples;Min_cycle;Max_cycle;Signal;HPM_P1;HPM_P2
2021/12/12 00:00:49;;;;;;;24.00;12.40;;;;;;;;;;5075241;28;20453;-72
2021/12/12 00:03:31;;;;;;;32.83;14.77;;;;;;;;;;5075298;28;20595;-73
2021/12/12 00:06:01;;;;;;;27.77;14.40;;;;;;;;;;5076561;28;20522;-73
2021/12/12 00:08:30;;;;;;;31.27;13.07;;;;;;;;;;5078020;28;20456;-73
2021/12/12 00:10:59;;;;;;;22.70;10.20;;;;;;;;;;5078398;28;20905;-73
2021/12/12 00:13:28;;;;;;;26.87;13.60;;;;;;;;;;5078942;28;20456;-72
2021/12/12 00:15:58;;;;;;;34.27;13.97;;;;;;;;;;5066659;28;20511;-73
2021/12/12 00:18:26;;;;;;;25.00;10.60;;;;;;;;;;5073664;28;20460;-73
2021/12/12 00:20:54;;;;;;;26.67;13.47;;;;;;;;;;5078775;28;20959;-73
2021/12/12 00:23:23;;;;;;;30.30;12.80;;;;;;;;;;5078772;28;20480;-72
2021/12/12 00:25:54;;;;;;;28.83;15.53;;;;;;;;;;5068963;28;20706;-71
2021/12/12 00:28:25;;;;;;;28.57;15.20;;;;;;;;;;5078624;28;20916;-72
2021/12/12 00:30:55;;;;;;;27.33;12.77;;;;;;;;;;5078960;28;20480;-73
2021/12/12 00:33:23;;;;;;;33.03;12.80;;;;;;;;;;5078485;28;20457;-74
2021/12/12 00:35:51;;;;;;;30.90;14.27;;;;;;;;;;5077752;28;20453;-73
2021/12/12 00:38:23;;;;;;;27.57;13.63;;;;;;;;;;5077666;28;20907;-73
2021/12/12 00:40:53;;;;;;;33.87;15.80;;;;;;;;;;5077885;28;20444;-74
2021/12/12 00:43:23;;;;;;;32.50;14.83;;;;;;;;;;5064633;28;20484;-73
2021/12/12 00:45:51;;;;;;;25.43;14.03;;;;;;;;;;5078636;28;20449;-73
2021/12/12 00:48:23;;;;;;;30.23;14.50;;;;;;;;;;5078593;28;20470;-73
2021/12/12 00:50:53;;;;;;;27.37;13.63;;;;;;;;;;5078215;28;20457;-73
2021/12/12 00:53:22;;;;;;;29.93;12.60;;;;;;;;;;5078395;28;20464;-73
2021/12/12 00:55:50;;;;;;;26.07;13.57;;;;;;;;;;5078828;28;20547;-74
2021/12/12 00:58:20;;;;;;;36.60;15.10;;;;;;;;;;5077983;28;20460;-74
2021/12/12 01:00:50;;;;;;;30.57;11.90;;;;;;;;;;5078360;28;20940;-73
2021/12/12 01:03:19;;;;;;;30.40;14.13;;;;;;;;;;5072317;28;20550;-73
2021/12/12 01:05:47;;;;;;;21.73;11.60;;;;;;;;;;5075404;28;20860;-73
2021/12/12 01:08:15;;;;;;;28.13;12.03;;;;;;;;;;5079248;28;20457;-73
2021/12/12 01:10:44;;;;;;;32.17;13.70;;;;;;;;;;5077152;28;20531;-73
2021/12/12 01:13:13;;;;;;;23.70;11.93;;;;;;;;;;5078194;28;20884;-73
2021/12/12 01:15:44;;;;;;;33.60;11.57;;;;;;;;;;5077797;28;20460;-73
2021/12/12 01:18:14;;;;;;;22.70;11.00;;;;;;;;;;5077424;28;20781;-73
2021/12/12 01:20:44;;;;;;;34.77;13.23;;;;;;;;;;5077730;28;20463;-73
2021/12/12 01:23:14;;;;;;;24.80;10.47;;;;;;;;;;5077394;28;20939;-72
2021/12/12 01:25:44;;;;;;;25.53;13.10;;;;;;;;;;5076565;28;20799;-73
2021/12/12 01:28:13;;;;;;;27.43;12.97;;;;;;;;;;5078708;28;20480;-73
2021/12/12 01:30:42;;;;;;;27.40;11.67;;;;;;;;;;5077255;28;20445;-73
2021/12/12 01:33:11;;;;;;;26.60;11.77;;;;;;;;;;5077790;28;20525;-73
2021/12/12 01:35:38;;;;;;;25.80;11.60;;;;;;;;;;5077441;28;20452;-73
2021/12/12 01:40:55;;;;;;;29.20;10.93;;;;;;;;;;5077217;28;20428;-72
2021/12/12 01:43:26;;;;;;;28.97;13.50;;;;;;;;;;5077534;28;20546;-73
2021/12/12 01:46:00;;;;;;;27.07;10.80;;;;;;;;;;5077038;28;20452;-73
2021/12/12 01:48:28;;;;;;;24.60;11.10;;;;;;;;;;5076942;28;20479;-73
2021/12/12 01:50:57;;;;;;;23.10;9.60;;;;;;;;;;5077380;28;20884;-72
2021/12/12 01:53:29;;;;;;;23.07;10.40;;;;;;;;;;5077184;28;20589;-73
2021/12/12 01:55:59;;;;;;;24.20;10.80;;;;;;;;;;5077963;28;20440;-73
2021/12/12 01:58:28;;;;;;;17.57;9.93;;;;;;;;;;5077144;28;20895;-74
2021/12/12 02:01:04;;;;;;;29.10;13.40;;;;;;;;;;5077086;28;20453;-74
2021/12/12 02:03:37;;;;;;;25.80;12.37;;;;;;;;;;5077422;28;20568;-73
2021/12/12 02:06:07;;;;;;;34.67;13.90;;;;;;;;;;5076994;28;20520;-73
2021/12/12 02:08:35;;;;;;;27.70;12.83;;;;;;;;;;5077309;28;20849;-73
2021/12/12 02:11:03;;;;;;;26.20;12.40;;;;;;;;;;5076605;28;20460;-73
2021/12/12 02:13:32;;;;;;;26.13;13.00;;;;;;;;;;5076760;28;20449;-73
2021/12/12 02:16:03;;;;;;;22.00;11.30;;;;;;;;;;5064844;28;20859;-73
2021/12/12 02:18:36;;;;;;;25.27;11.57;;;;;;;;;;5076366;28;20452;-72
2021/12/12 02:21:11;;;;;;;22.40;11.10;;;;;;;;;;5076489;28;20461;-72
2021/12/12 02:23:58;;;;;;;19.30;11.03;;;;;;;;;;5076225;28;20579;-72
2021/12/12 02:37:30;;;;;;;24.40;12.37;;;;;;;;;;5062621;28;20472;-73
2021/12/12 02:40:00;;;;;;;22.50;11.90;;;;;;;;;;5074606;28;20444;-73
2021/12/12 02:42:27;;;;;;;25.33;11.13;;;;;;;;;;5066646;28;20538;-73
2021/12/12 02:44:59;;;;;;;26.87;12.00;;;;;;;;;;5066001;28;20478;-73
2021/12/12 02:47:33;;;;;;;24.13;11.43;;;;;;;;;;5076363;28;20465;-73
2021/12/12 02:50:11;;;;;;;23.80;11.70;;;;;;;;;;5076209;28;20556;-73
2021/12/12 02:52:39;;;;;;;23.17;11.97;;;;;;;;;;5076632;28;20458;-73
2021/12/12 02:55:11;;;;;;;24.40;13.20;;;;;;;;;;5060845;28;20456;-73
2021/12/12 02:57:38;;;;;;;25.47;11.20;;;;;;;;;;5076815;28;20457;-73
2021/12/12 03:00:07;;;;;;;27.10;12.60;;;;;;;;;;5076356;28;20460;-73
2021/12/12 03:02:43;;;;;;;20.20;8.90;;;;;;;;;;5076000;28;20488;-73
2021/12/12 03:05:10;;;;;;;25.77;12.33;;;;;;;;;;5076371;28;20456;-73
2021/12/12 03:07:39;;;;;;;26.37;12.23;;;;;;;;;;5076066;28;20448;-73
2021/12/12 03:10:09;;;;;;;25.33;11.73;;;;;;;;;;5076343;28;20467;-73
2021/12/12 03:12:38;;;;;;;28.97;11.90;;;;;;;;;;5075898;28;20887;-73
2021/12/12 03:15:08;;;;;;;24.47;10.50;;;;;;;;;;5075492;28;20884;-73
2021/12/12 03:17:37;;;;;;;20.80;12.70;;;;;;;;;;5076484;28;20542;-73
2021/12/12 03:20:09;;;;;;;23.43;12.53;;;;;;;;;;5075504;28;20467;-73
2021/12/12 03:22:37;;;;;;;26.73;11.50;;;;;;;;;;5057376;28;20772;-73
2021/12/12 03:25:07;;;;;;;27.97;11.40;;;;;;;;;;5059487;28;20468;-73
2021/12/12 03:27:35;;;;;;;18.90;9.63;;;;;;;;;;5071656;28;20522;-73
2021/12/12 03:30:05;;;;;;;38.63;14.00;;;;;;;;;;5075705;28;20465;-73
2021/12/12 03:32:32;;;;;;;26.40;11.67;;;;;;;;;;5075771;28;20441;-73
2021/12/12 03:35:01;;;;;;;27.47;11.27;;;;;;;;;;5075677;28;20461;-73
2021/12/12 03:37:30;;;;;;;26.60;13.37;;;;;;;;;;5075374;28;20535;-73
2021/12/12 03:39:59;;;;;;;30.90;13.33;;;;;;;;;;5075471;28;20495;-73
2021/12/12 03:42:28;;;;;;;36.50;11.70;;;;;;;;;;5078826;28;20470;-73
2021/12/12 03:45:00;;;;;;;31.83;12.23;;;;;;;;;;5079563;28;20494;-73
2021/12/12 03:47:30;;;;;;;31.70;11.87;;;;;;;;;;5079680;28;20457;-72
2021/12/12 03:49:59;;;;;;;33.03;12.87;;;;;;;;;;5079054;28;20600;-73
2021/12/12 03:52:27;;;;;;;36.20;14.90;;;;;;;;;;5079179;28;20938;-73
2021/12/12 03:54:58;;;;;;;35.87;17.43;;;;;;;;;;5079284;28;20954;-73
2021/12/12 03:57:25;;;;;;;29.43;13.33;;;;;;;;;;5079761;28;20463;-72
2021/12/12 03:59:53;;;;;;;29.30;12.80;;;;;;;;;;5079535;28;20514;-72
2021/12/12 04:02:21;;;;;;;34.73;14.97;;;;;;;;;;5079409;28;20575;-74
2021/12/12 04:04:51;;;;;;;41.60;14.93;;;;;;;;;;5079663;28;20449;-74
2021/12/12 04:07:23;;;;;;;28.30;14.00;;;;;;;;;;5079580;28;20456;-74
2021/12/12 04:09:50;;;;;;;34.40;14.77;;;;;;;;;;5079190;28;20459;-74
2021/12/12 04:12:19;;;;;;;44.20;16.80;;;;;;;;;;5065874;28;20812;-73
2021/12/12 04:14:47;;;;;;;38.03;14.40;;;;;;;;;;5080132;28;20479;-73
2021/12/12 04:17:16;;;;;;;36.43;16.40;;;;;;;;;;5080112;28;20467;-73
2021/12/12 04:19:48;;;;;;;42.87;16.50;;;;;;;;;;5073498;28;20464;-73
2021/12/12 04:22:19;;;;;;;41.47;15.23;;;;;;;;;;5080179;28;20456;-73
2021/12/12 04:24:48;;;;;;;45.43;16.17;;;;;;;;;;5079884;28;20537;-73
2021/12/12 04:27:17;;;;;;;31.73;14.80;;;;;;;;;;5080150;28;20868;-73
2021/12/12 04:29:50;;;;;;;40.30;16.10;;;;;;;;;;5078652;28;20740;-74
2021/12/12 04:32:19;;;;;;;40.73;17.27;;;;;;;;;;5079730;28;20522;-73
2021/12/12 04:34:47;;;;;;;37.83;16.73;;;;;;;;;;5080219;28;20448;-73
2021/12/12 04:37:17;;;;;;;47.27;15.90;;;;;;;;;;5079467;28;20464;-73
2021/12/12 04:39:49;;;;;;;61.87;18.83;;;;;;;;;;5062180;28;20450;-73
2021/12/12 04:42:17;;;;;;;44.40;16.93;;;;;;;;;;5079885;28;20546;-73
2021/12/12 04:44:49;;;;;;;40.60;19.00;;;;;;;;;;5079506;28;20480;-73
2021/12/12 04:50:09;;;;;;;42.43;16.80;;;;;;;;;;5078353;28;20439;-73
2021/12/12 04:52:42;;;;;;;43.47;17.80;;;;;;;;;;5079405;28;20731;-74
2021/12/12 04:55:12;;;;;;;38.13;15.70;;;;;;;;;;5080287;28;20506;-73
2021/12/12 04:57:43;;;;;;;43.73;18.43;;;;;;;;;;5079986;28;20562;-73
2021/12/12 05:00:14;;;;;;;33.90;14.67;;;;;;;;;;5079801;28;20482;-73
2021/12/12 05:02:47;;;;;;;48.43;17.00;;;;;;;;;;5080718;28;20454;-73
2021/12/12 05:05:16;;;;;;;42.63;17.07;;;;;;;;;;5079307;28;20456;-73
2021/12/12 05:07:49;;;;;;;33.40;15.70;;;;;;;;;;5080086;28;20860;-73
2021/12/12 05:10:21;;;;;;;38.40;17.70;;;;;;;;;;5079942;28;20460;-73
2021/12/12 05:12:50;;;;;;;34.50;15.97;;;;;;;;;;5079533;28;20460;-74
2021/12/12 05:15:20;;;;;;;39.60;18.63;;;;;;;;;;5080531;28;20456;-74
2021/12/12 05:17:50;;;;;;;43.03;18.50;;;;;;;;;;5079988;28;20455;-74
2021/12/12 05:20:21;;;;;;;36.83;15.27;;;;;;;;;;5079599;28;20506;-74
2021/12/12 05:22:51;;;;;;;33.90;17.77;;;;;;;;;;5080163;28;20445;-74
2021/12/12 05:25:21;;;;;;;35.30;17.33;;;;;;;;;;5079809;28;20467;-73
2021/12/12 05:27:52;;;;;;;40.47;17.43;;;;;;;;;;5078923;28;20550;-73
2021/12/12 05:30:22;;;;;;;33.63;15.17;;;;;;;;;;5077923;28;20453;-73
2021/12/12 05:32:50;;;;;;;35.57;13.63;;;;;;;;;;5079820;28;20795;-73
2021/12/12 05:35:19;;;;;;;31.23;14.90;;;;;;;;;;5065573;28;20452;-73
2021/12/12 05:37:48;;;;;;;39.43;16.67;;;;;;;;;;5079268;28;20498;-73
2021/12/12 05:40:17;;;;;;;46.00;15.23;;;;;;;;;;5079594;28;20460;-73
2021/12/12 05:42:45;;;;;;;35.43;15.20;;;;;;;;;;5079737;28;20717;-73
2021/12/12 05:45:13;;;;;;;34.03;15.70;;;;;;;;;;5079902;28;20472;-72
2021/12/12 05:47:41;;;;;;;34.97;14.50;;;;;;;;;;5079398;28;20452;-72
2021/12/12 05:50:10;;;;;;;33.47;16.07;;;;;;;;;;5070834;28;20827;-73
2021/12/12 05:52:38;;;;;;;36.13;17.10;;;;;;;;;;5079649;28;20770;-73
2021/12/12 05:55:08;;;;;;;34.50;17.73;;;;;;;;;;5079521;28;20448;-73
2021/12/12 05:57:38;;;;;;;37.90;16.60;;;;;;;;;;5079767;28;20452;-73
2021/12/12 06:00:16;;;;;;;32.57;14.70;;;;;;;;;;5078349;28;20484;-73
2021/12/12 06:02:45;;;;;;;37.70;15.13;;;;;;;;;;5078714;28;20489;-73
2021/12/12 06:05:12;;;;;;;38.43;14.20;;;;;;;;;;5078744;28;20476;-73
2021/12/12 06:07:43;;;;;;;42.27;15.90;;;;;;;;;;5078867;28;20475;-71
2021/12/12 06:10:13;;;;;;;33.90;15.40;;;;;;;;;;5079612;28;20452;-73
2021/12/12 06:12:42;;;;;;;34.80;16.20;;;;;;;;;;5077048;28;20506;-72
2021/12/12 06:15:11;;;;;;;30.60;15.80;;;;;;;;;;5062393;28;20507;-73
2021/12/12 06:17:48;;;;;;;35.00;15.90;;;;;;;;;;5062718;28;20456;-72
2021/12/12 06:20:16;;;;;;;33.73;14.60;;;;;;;;;;5078389;28;20472;-72
2021/12/12 06:22:44;;;;;;;30.33;14.63;;;;;;;;;;5078778;28;20461;-72
2021/12/12 06:25:12;;;;;;;27.43;13.03;;;;;;;;;;5075561;28;20488;-72
2021/12/12 06:27:46;;;;;;;34.80;14.13;;;;;;;;;;5058344;28;20457;-72
2021/12/12 06:30:16;;;;;;;29.80;14.37;;;;;;;;;;5061343;28;20449;-72
2021/12/12 06:32:44;;;;;;;28.23;14.17;;;;;;;;;;5058608;28;20465;-72
2021/12/12 06:35:13;;;;;;;30.50;11.90;;;;;;;;;;5058586;28;20445;-72
2021/12/12 06:37:47;;;;;;;20.73;11.40;;;;;;;;;;5057984;28;20546;-73
2021/12/12 06:40:17;;;;;;;29.30;14.70;;;;;;;;;;5058244;28;20458;-73
2021/12/12 06:42:49;;;;;;;26.93;12.17;;;;;;;;;;5058529;28;20822;-73
2021/12/12 06:45:17;;;;;;;26.07;14.27;;;;;;;;;;5057797;28;20492;-72
2021/12/12 06:47:46;;;;;;;39.30;13.47;;;;;;;;;;5058111;28;20465;-72
2021/12/12 06:50:13;;;;;;;34.20;13.80;;;;;;;;;;5058074;28;20846;-72
2021/12/12 06:52:41;;;;;;;28.63;12.40;;;;;;;;;;5057844;28;20430;-72
2021/12/12 06:55:11;;;;;;;29.20;12.33;;;;;;;;;;5057649;28;20511;-72
2021/12/12 06:57:39;;;;;;;25.40;13.00;;;;;;;;;;5076412;28;20452;-72
2021/12/12 07:00:10;;;;;;;27.23;11.73;;;;;;;;;;5078742;28;20444;-72
2021/12/12 07:02:37;;;;;;;32.17;16.10;;;;;;;;;;5068479;28;20476;-72
2021/12/12 07:05:05;;;;;;;28.43;13.30;;;;;;;;;;5069947;28;20537;-72
2021/12/12 07:07:33;;;;;;;29.60;12.97;;;;;;;;;;5057893;28;20454;-72
2021/12/12 07:10:03;;;;;;;23.90;14.30;;;;;;;;;;5058942;28;20461;-72
2021/12/12 07:12:31;;;;;;;20.00;10.17;;;;;;;;;;5076699;28;20445;-72
2021/12/12 07:15:03;;;;;;;27.73;11.73;;;;;;;;;;5069126;28;20449;-72
2021/12/12 07:17:32;;;;;;;22.10;11.57;;;;;;;;;;5068926;28;20853;-72
2021/12/12 07:20:00;;;;;;;24.90;11.50;;;;;;;;;;5081735;28;20494;-72
2021/12/12 07:22:29;;;;;;;27.23;11.53;;;;;;;;;;5061608;28;20472;-72
2021/12/12 07:24:57;;;;;;;24.37;11.30;;;;;;;;;;5065336;28;21001;-72
2021/12/12 07:27:25;;;;;;;20.53;11.33;;;;;;;;;;5061068;28;20445;-72
2021/12/12 07:29:55;;;;;;;17.77;9.33;;;;;;;;;;5065743;28;20456;-72
2021/12/12 07:32:23;;;;;;;22.40;11.73;;;;;;;;;;5081162;28;20521;-72
2021/12/12 07:34:53;;;;;;;25.03;11.40;;;;;;;;;;5074657;28;20460;-72
2021/12/12 07:37:21;;;;;;;17.43;7.77;;;;;;;;;;5081130;28;20456;-72
2021/12/12 07:39:51;;;;;;;20.33;11.13;;;;;;;;;;5080350;28;20518;-73
2021/12/12 07:42:20;;;;;;;22.43;10.23;;;;;;;;;;5079793;28;20565;-72
2021/12/12 07:44:48;;;;;;;20.77;10.07;;;;;;;;;;5080560;28;20581;-73
2021/12/12 07:47:16;;;;;;;19.10;10.63;;;;;;;;;;5078779;28;20467;-73
2021/12/12 07:49:45;;;;;;;22.00;9.93;;;;;;;;;;5071018;28;20449;-73
2021/12/12 07:52:16;;;;;;;21.80;10.80;;;;;;;;;;5060679;28;20464;-73
2021/12/12 07:54:46;;;;;;;19.43;8.30;;;;;;;;;;5077375;28;20523;-73
2021/12/12 07:57:16;;;;;;;25.63;10.00;;;;;;;;;;5078533;28;20534;-73
2021/12/12 07:59:44;;;;;;;25.90;9.47;;;;;;;;;;5078919;28;20454;-72
2021/12/12 08:02:13;;;;;;;22.17;9.50;;;;;;;;;;5080350;28;21000;-73
2021/12/12 08:04:46;;;;;;;18.27;8.20;;;;;;;;;;5077813;28;20472;-73
2021/12/12 08:07:17;;;;;;;16.40;8.93;;;;;;;;;;5072011;28;20598;-73
2021/12/12 08:09:45;;;;;;;22.77;9.87;;;;;;;;;;5071208;28;20452;-73
2021/12/12 08:12:15;;;;;;;20.27;10.63;;;;;;;;;;5079623;28;20860;-73
2021/12/12 08:14:43;;;;;;;20.53;9.80;;;;;;;;;;5079422;28;20456;-73
2021/12/12 08:17:19;;;;;;;20.73;8.90;;;;;;;;;;5078701;28;20460;-73
2021/12/12 08:20:00;;;;;;;21.73;8.97;;;;;;;;;;5073626;28;20452;-74
2021/12/12 08:22:29;;;;;;;15.33;7.70;;;;;;;;;;5075948;28;20464;-73
2021/12/12 08:25:01;;;;;;;17.93;8.30;;;;;;;;;;5064302;28;20486;-73
2021/12/12 08:27:29;;;;;;;20.57;9.23;;;;;;;;;;5078224;28;20471;-73
2021/12/12 08:29:57;;;;;;;20.97;8.63;;;;;;;;;;5079138;28;20533;-74
2021/12/12 08:32:26;;;;;;;29.20;7.73;;;;;;;;;;5079582;28;20457;-74
2021/12/12 08:34:53;;;;;;;16.40;9.90;;;;;;;;;;5078684;28;20449;-73
2021/12/12 08:37:21;;;;;;;24.43;10.13;;;;;;;;;;5079133;28;20787;-73
2021/12/12 08:39:50;;;;;;;12.80;7.23;;;;;;;;;;5078893;28;20502;-73
2021/12/12 08:42:18;;;;;;;15.47;8.43;;;;;;;;;;5078116;28;21345;-73
2021/12/12 08:44:45;;;;;;;20.90;9.30;;;;;;;;;;5079254;28;20495;-73
2021/12/12 08:47:15;;;;;;;19.90;10.90;;;;;;;;;;5077267;28;20464;-73
2021/12/12 08:49:43;;;;;;;20.33;10.53;;;;;;;;;;5057248;28;20460;-73
2021/12/12 08:52:13;;;;;;;16.33;8.00;;;;;;;;;;5060675;28;20773;-73
2021/12/12 08:54:43;;;;;;;20.17;10.73;;;;;;;;;;5057556;28;20530;-73
2021/12/12 08:57:20;;;;;;;18.43;8.90;;;;;;;;;;5057371;28;20473;-73
2021/12/12 08:59:48;;;;;;;12.77;8.03;;;;;;;;;;5057773;28;20538;-73
2021/12/12 09:02:18;;;;;;;20.53;10.13;;;;;;;;;;5057283;28;20464;-73
2021/12/12 09:04:47;;;;;;;9.70;7.10;;;;;;;;;;5060555;28;20572;-73
2021/12/12 09:07:17;;;;;;;16.70;7.20;;;;;;;;;;5077020;28;20445;-73
2021/12/12 09:09:47;;;;;;;15.63;8.20;;;;;;;;;;5077231;28;20902;-73
2021/12/12 09:12:27;;;;;;;12.73;7.73;;;;;;;;;;5072618;28;20481;-73
2021/12/12 09:14:57;;;;;;;13.90;8.63;;;;;;;;;;5059254;28;20456;-73
2021/12/12 09:17:28;;;;;;;19.70;8.30;;;;;;;;;;5057531;28;20564;-73
2021/12/12 09:19:58;;;;;;;17.93;9.40;;;;;;;;;;5055966;28;20878;-72
2021/12/12 09:22:31;;;;;;;10.50;5.50;;;;;;;;;;5056332;28;20471;-72
2021/12/12 09:25:01;;;;;;;11.73;7.57;;;;;;;;;;5055800;28;20481;-73
2021/12/12 09:27:33;;;;;;;10.57;6.00;;;;;;;;;;5056624;28;20469;-73
2021/12/12 09:30:02;;;;;;;17.90;7.20;;;;;;;;;;5056476;28;20450;-73
2021/12/12 09:32:32;;;;;;;22.93;7.43;;;;;;;;;;5064125;28;20456;-73
2021/12/12 09:35:02;;;;;;;23.33;10.60;;;;;;;;;;5077957;28;20444;-75
2021/12/12 09:37:51;;;;;;;16.43;7.87;;;;;;;;;;5075270;28;20460;-72
2021/12/12 09:40:25;;;;;;;13.77;7.40;;;;;;;;;;5057823;28;20904;-73
2021/12/12 09:43:05;;;;;;;11.70;5.73;;;;;;;;;;5057639;28;20877;-73
2021/12/12 09:45:41;;;;;;;15.20;7.77;;;;;;;;;;5062614;28;20580;-73
2021/12/12 09:51:18;;;;;;;14.23;6.30;;;;;;;;;;5067500;28;20519;-73
2021/12/12 09:53:59;;;;;;;15.37;6.37;;;;;;;;;;5075635;28;20517;-73
2021/12/12 09:56:31;;;;;;;11.53;4.17;;;;;;;;;;5076292;28;20456;-73
2021/12/12 09:59:04;;;;;;;14.00;7.13;;;;;;;;;;5075686;28;20449;-73
2021/12/12 10:07:33;;;;;;;13.47;7.70;;;;;;;;;;5068360;28;20445;-73
2021/12/12 10:10:02;;;;;;;16.13;7.57;;;;;;;;;;5057111;28;20535;-74
2021/12/12 10:12:37;;;;;;;15.60;7.37;;;;;;;;;;5056688;28;20449;-73
2021/12/12 10:18:11;;;;;;;19.23;7.63;;;;;;;;;;5016053;28;20449;-73
2021/12/12 10:20:42;;;;;;;15.63;7.63;;;;;;;;;;5068351;28;20455;-72
2021/12/12 10:23:18;;;;;;;11.63;6.80;;;;;;;;;;5067084;28;20841;-73
2021/12/12 10:25:56;;;;;;;10.10;5.53;;;;;;;;;;5058433;28;20939;-72
2021/12/12 10:28:27;;;;;;;9.70;6.13;;;;;;;;;;5057575;28;20479;-73
2021/12/12 10:31:01;;;;;;;4.20;3.27;;;;;;;;;;5056135;28;20441;-73
2021/12/12 10:33:43;;;;;;;13.20;7.60;;;;;;;;;;5056155;28;20773;-72
2021/12/12 10:36:13;;;;;;;7.40;4.47;;;;;;;;;;5063670;28;20471;-73
2021/12/12 10:38:46;;;;;;;11.87;5.80;;;;;;;;;;5076552;28;20468;-72
2021/12/12 10:41:17;;;;;;;5.50;3.37;;;;;;;;;;5076839;28;20522;-72
2021/12/12 10:43:49;;;;;;;9.53;4.30;;;;;;;;;;5075967;28;20460;-71
2021/12/12 10:46:20;;;;;;;7.50;5.33;;;;;;;;;;5075604;28;20480;-74
2021/12/12 10:48:59;;;;;;;9.80;5.17;;;;;;;;;;5072795;28;20748;-72
2021/12/12 10:51:29;;;;;;;9.80;5.57;;;;;;;;;;5077112;28;20460;-72
2021/12/12 10:54:03;;;;;;;9.40;5.17;;;;;;;;;;5076585;28;20468;-75
2021/12/12 10:56:34;;;;;;;6.00;5.40;;;;;;;;;;5077010;28;20437;-70
2021/12/12 10:59:06;;;;;;;10.63;5.27;;;;;;;;;;5076523;28;20452;-72
2021/12/12 11:01:38;;;;;;;8.20;6.30;;;;;;;;;;5077021;28;20517;-71
2021/12/12 11:04:12;;;;;;;8.73;5.40;;;;;;;;;;5074826;28;20445;-72
2021/12/12 11:06:43;;;;;;;15.57;7.50;;;;;;;;;;5075526;28;20495;-70
2021/12/12 11:09:15;;;;;;;11.90;7.53;;;;;;;;;;5076519;28;20460;-71
2021/12/12 11:11:45;;;;;;;6.10;4.10;;;;;;;;;;5075450;28;20457;-71
2021/12/12 11:14:16;;;;;;;10.47;5.60;;;;;;;;;;5075265;28;20502;-71
2021/12/12 11:16:46;;;;;;;7.57;5.20;;;;;;;;;;5075656;28;20443;-72
2021/12/12 11:19:25;;;;;;;12.07;5.50;;;;;;;;;;5073219;28;20482;-72
2021/12/12 11:21:59;;;;;;;7.83;5.57;;;;;;;;;;5075325;28;20467;-72
2021/12/12 11:24:31;;;;;;;6.37;4.50;;;;;;;;;;5073092;28;20521;-71
2021/12/12 11:27:01;;;;;;;7.57;4.97;;;;;;;;;;5074715;28;20484;-71
2021/12/12 11:29:39;;;;;;;8.60;4.90;;;;;;;;;;5076291;28;20847;-71
2021/12/12 11:32:11;;;;;;;6.83;4.03;;;;;;;;;;5074073;28;20815;-73
2021/12/12 11:34:43;;;;;;;9.80;4.90;;;;;;;;;;5057939;28;20568;-72
2021/12/12 11:37:15;;;;;;;10.63;5.13;;;;;;;;;;5057268;28;20465;-72
2021/12/12 11:39:48;;;;;;;7.13;4.30;;;;;;;;;;5058180;28;20453;-71
2021/12/12 11:42:21;;;;;;;8.80;5.27;;;;;;;;;;5060914;28;20481;-72
2021/12/12 11:44:51;;;;;;;7.03;4.23;;;;;;;;;;5075925;28;20938;-72
2021/12/12 11:47:25;;;;;;;7.57;5.03;;;;;;;;;;5066994;28;20462;-72
2021/12/12 11:50:08;;;;;;;9.03;4.87;;;;;;;;;;5073345;28;20448;-73
2021/12/12 11:52:39;;;;;;;8.33;4.57;;;;;;;;;;5075017;28;20452;-72
2021/12/12 11:55:17;;;;;;;5.80;4.40;;;;;;;;;;5076671;28;20482;-72
2021/12/12 11:58:12;;;;;;;7.30;3.80;;;;;;;;;;5069840;28;20519;-71
2021/12/12 12:00:41;;;;;;;8.70;5.00;;;;;;;;;;5075544;28;20708;-72
2021/12/12 12:03:14;;;;;;;14.77;7.07;;;;;;;;;;5079690;28;20444;-72
2021/12/12 12:05:49;;;;;;;9.63;4.20;;;;;;;;;;5072947;28;20532;-71
2021/12/12 12:08:24;;;;;;;6.90;4.43;;;;;;;;;;5061583;28;20874;-71
2021/12/12 12:10:57;;;;;;;4.57;2.67;;;;;;;;;;5062484;28;20483;-70
2021/12/12 12:13:52;;;;;;;12.77;5.60;;;;;;;;;;5058789;28;20462;-72
2021/12/12 12:16:28;;;;;;;5.30;4.10;;;;;;;;;;5066232;28;20538;-72
2021/12/12 12:19:01;;;;;;;4.93;3.63;;;;;;;;;;5076523;28;20517;-74
2021/12/12 12:21:34;;;;;;;7.50;5.43;;;;;;;;;;5078628;28;20453;-72
2021/12/12 12:24:14;;;;;;;6.60;4.73;;;;;;;;;;5064446;28;20923;-72
2021/12/12 12:27:16;;;;;;;9.20;7.13;;;;;;;;;;5057687;28;20489;-72
2021/12/12 12:30:07;;;;;;;10.67;6.53;;;;;;;;;;5066185;28;20525;-72
2021/12/12 12:33:16;;;;;;;10.07;5.43;;;;;;;;;;5070224;28;20452;-73
2021/12/12 12:36:02;;;;;;;7.90;4.80;;;;;;;;;;5075272;28;20530;-72
2021/12/12 12:38:51;;;;;;;7.70;4.80;;;;;;;;;;5062982;28;20450;-72
2021/12/12 12:41:37;;;;;;;7.97;5.30;;;;;;;;;;5060437;28;20440;-70
2021/12/12 12:44:25;;;;;;;8.03;4.70;;;;;;;;;;5068054;28;20449;-72
2021/12/12 12:50:16;;;;;;;6.60;4.13;;;;;;;;;;5058890;28;20454;-72
2021/12/12 12:52:55;;;;;;;7.03;3.97;;;;;;;;;;5064918;28;20460;-72
2021/12/12 12:55:40;;;;;;;6.00;4.17;;;;;;;;;;5078110;28;20444;-71
2021/12/12 12:58:23;;;;;;;7.70;5.73;;;;;;;;;;5058315;28;20461;-71
2021/12/12 13:00:54;;;;;;;4.70;3.90;;;;;;;;;;5063950;28;20457;-71
2021/12/12 13:03:38;;;;;;;6.10;4.23;;;;;;;;;;5062565;28;20531;-71
2021/12/12 13:06:20;;;;;;;5.90;3.90;;;;;;;;;;5066375;28;20504;-72
2021/12/12 13:09:06;;;;;;;8.10;3.40;;;;;;;;;;5062528;28;20450;-72
2021/12/12 13:11:48;;;;;;;9.13;5.53;;;;;;;;;;5018595;28;20488;-72
2021/12/12 13:14:31;;;;;;;8.03;5.10;;;;;;;;;;5059649;28;20503;-72
2021/12/12 13:17:09;;;;;;;6.07;4.97;;;;;;;;;;5066886;28;20441;-72
2021/12/12 13:19:44;;;;;;;7.53;5.83;;;;;;;;;;5058199;28;20845;-73
2021/12/12 13:22:29;;;;;;;11.97;6.77;;;;;;;;;;5068906;28;20566;-72
2021/12/12 13:25:08;;;;;;;16.70;9.20;;;;;;;;;;5063567;28;20446;-71
2021/12/12 13:27:59;;;;;;;7.30;4.80;;;;;;;;;;5057833;28;20489;-72
2021/12/12 13:30:40;;;;;;;5.87;3.50;;;;;;;;;;5058709;28;20555;-71
2021/12/12 13:33:12;;;;;;;7.10;4.07;;;;;;;;;;5057974;28;20816;-72
2021/12/12 13:35:43;;;;;;;11.73;5.30;;;;;;;;;;5056217;28;20445;-71
2021/12/12 13:38:14;;;;;;;18.27;6.67;;;;;;;;;;5077979;28;20763;-72
2021/12/12 13:40:45;;;;;;;29.43;13.00;;;;;;;;;;5078153;28;20452;-73
2021/12/12 13:43:21;;;;;;;24.63;13.93;;;;;;;;;;5077488;28;20441;-72
2021/12/12 13:46:01;;;;;;;30.60;14.50;;;;;;;;;;5078630;28;20485;-72
2021/12/12 13:48:36;;;;;;;27.53;12.70;;;;;;;;;;5073909;28;20480;-72
2021/12/12 13:51:17;;;;;;;18.30;8.50;;;;;;;;;;5070608;28;20459;-71
2021/12/12 13:53:52;;;;;;;14.53;7.63;;;;;;;;;;5066997;28;20449;-72
2021/12/12 13:56:25;;;;;;;6.90;3.13;;;;;;;;;;5071683;28;20634;-71
2021/12/12 13:59:04;;;;;;;9.93;6.80;;;;;;;;;;5073685;28;20456;-72
2021/12/12 14:01:42;;;;;;;8.00;4.30;;;;;;;;;;5064366;28;20456;-73
2021/12/12 14:04:19;;;;;;;7.13;4.00;;;;;;;;;;5066865;28;20463;-73
2021/12/12 14:06:50;;;;;;;8.10;5.40;;;;;;;;;;5076774;28;20479;-72
2021/12/12 14:09:20;;;;;;;8.80;5.13;;;;;;;;;;5077691;28;20487;-72
2021/12/12 14:11:53;;;;;;;6.03;3.80;;;;;;;;;;5071266;28;20536;-72
2021/12/12 14:14:37;;;;;;;6.43;4.80;;;;;;;;;;5057315;28;20465;-72
2021/12/12 14:17:15;;;;;;;7.40;5.63;;;;;;;;;;5072612;28;20490;-73
2021/12/12 14:19:52;;;;;;;5.60;3.97;;;;;;;;;;5077380;28;20464;-72
2021/12/12 14:22:24;;;;;;;7.40;4.67;;;;;;;;;;5077195;28;20455;-74
2021/12/12 14:24:53;;;;;;;8.17;5.10;;;;;;;;;;5074516;28;20514;-73
2021/12/12 14:27:22;;;;;;;5.30;4.17;;;;;;;;;;5076046;28;20484;-72
2021/12/12 14:29:53;;;;;;;9.30;6.20;;;;;;;;;;5074091;28;20463;-72
2021/12/12 14:32:33;;;;;;;6.30;5.63;;;;;;;;;;5075239;28;20522;-73
2021/12/12 14:35:04;;;;;;;6.93;5.20;;;;;;;;;;5077087;28;20688;-73
2021/12/12 14:37:37;;;;;;;6.37;3.50;;;;;;;;;;5071129;28;20449;-73
2021/12/12 14:40:08;;;;;;;6.27;4.07;;;;;;;;;;5064782;28;20460;-73
2021/12/12 14:42:40;;;;;;;6.70;4.50;;;;;;;;;;5063758;28;20437;-73
2021/12/12 14:45:14;;;;;;;7.13;3.90;;;;;;;;;;5055430;28;20475;-73
2021/12/12 14:47:48;;;;;;;9.40;5.83;;;;;;;;;;5068077;28;20491;-72
2021/12/12 14:53:06;;;;;;;25.17;11.30;;;;;;;;;;5064618;28;20473;-72
2021/12/12 14:55:39;;;;;;;11.43;7.20;;;;;;;;;;5056075;28;20441;-72
2021/12/12 14:58:12;;;;;;;7.10;5.90;;;;;;;;;;5062355;28;20441;-72
2021/12/12 15:00:57;;;;;;;4.80;3.93;;;;;;;;;;5075188;28;20509;-73
2021/12/12 15:03:29;;;;;;;5.93;4.70;;;;;;;;;;5076127;28;20464;-73
2021/12/12 15:06:03;;;;;;;9.10;5.50;;;;;;;;;;5075205;28;20530;-73
2021/12/12 15:08:36;;;;;;;8.20;5.53;;;;;;;;;;5073214;28;20444;-72
2021/12/12 15:11:10;;;;;;;6.97;4.10;;;;;;;;;;5076740;28;20458;-72
2021/12/12 15:13:54;;;;;;;6.23;3.50;;;;;;;;;;5070234;28;20440;-72
2021/12/12 15:16:33;;;;;;;7.33;4.40;;;;;;;;;;5066904;28;20735;-72
2021/12/12 15:19:07;;;;;;;13.33;6.97;;;;;;;;;;5063091;28;20552;-71
2021/12/12 15:21:38;;;;;;;9.77;5.07;;;;;;;;;;5065682;28;20507;-72
2021/12/12 15:24:08;;;;;;;10.00;5.10;;;;;;;;;;5070001;28;20445;-72
2021/12/12 15:26:37;;;;;;;6.90;5.37;;;;;;;;;;5077016;28;20472;-72
2021/12/12 15:29:07;;;;;;;3.53;3.17;;;;;;;;;;5075196;28;20456;-73